Time;durP1;ratioP1;P1;durP2;ratioP2;P2;SDS_P1;SDS_P2;PMS_P1;PMS_P2;Temp;Humidity;BMP_temperature;BMP_pressure;BME280_temperature;BME280_humidity;BME280_pressure;Samples;Min_cycle;Max_cycle;Signal;HPM_P1;HPM_P2
2022/07/23 00:00:53;;;;;;;0.08;0.08;;;12.20;99.90;;;;;;5026602;28;20076;-92
2022/07/23 00:03:19;;;;;;;0.00;0.00;;;12.20;99.90;;;;;;5044463;28;20064;-93
2022/07/23 00:05:45;;;;;;;0.20;0.20;;;12.20;99.90;;;;;;5048201;28;20068;-92
2022/07/23 00:08:10;;;;;;;0.00;0.00;;;12.20;99.90;;;;;;5051354;28;20045;-92
2022/07/23 00:10:36;;;;;;;0.00;0.00;;;12.20;99.90;;;;;;5052402;28;20037;-92
2022/07/23 00:13:02;;;;;;;0.20;0.15;;;12.20;99.90;;;;;;5034802;28;20037;-92
2022/07/23 00:15:28;;;;;;;0.00;0.00;;;12.10;99.90;;;;;;5034335;28;20106;-92
2022/07/23 00:17:54;;;;;;;0.00;0.00;;;12.00;99.90;;;;;;5054764;28;20028;-93
2022/07/23 00:20:19;;;;;;;0.00;0.00;;;12.90;99.90;;;;;;5054213;28;20101;-92
2022/07/23 00:22:50;;;;;;;0.20;0.20;;;12.00;99.90;;;;;;5031581;28;20064;-91
2022/07/23 00:25:16;;;;;;;0.00;0.00;;;11.90;99.90;;;;;;5056416;28;20037;-93
2022/07/23 00:27:41;;;;;;;0.00;0.00;;;11.80;99.90;;;;;;5040263;28;20041;-91
2022/07/23 00:30:08;;;;;;;0.00;0.00;;;11.80;99.90;;;;;;5038220;28;20052;-94
2022/07/23 00:32:46;;;;;;;0.00;0.00;;;11.70;99.90;;;;;;5035209;28;20047;-93
2022/07/23 00:35:11;;;;;;;4.60;0.20;;;11.70;99.90;;;;;;5036505;28;20049;-91
2022/07/23 00:37:37;;;;;;;0.40;0.40;;;11.60;99.90;;;;;;5051472;28;20037;-93
2022/07/23 00:40:03;;;;;;;0.00;0.00;;;12.30;99.90;;;;;;5053661;28;20072;-93
2022/07/23 00:42:31;;;;;;;0.38;0.35;;;11.40;99.90;;;;;;5037772;28;20041;-92
2022/07/23 00:44:56;;;;;;;0.08;0.08;;;11.40;99.90;;;;;;5054830;28;20018;-92
2022/07/23 00:47:23;;;;;;;1.27;0.68;;;11.30;99.90;;;;;;5038017;28;20132;-92
2022/07/23 00:49:48;;;;;;;0.00;0.00;;;11.30;99.90;;;;;;5036425;28;20041;-92
2022/07/23 00:52:14;;;;;;;0.00;0.00;;;11.30;99.90;;;;;;5027817;28;20164;-93
2022/07/23 00:54:40;;;;;;;0.00;0.00;;;11.30;99.90;;;;;;5044045;28;20059;-92
2022/07/23 00:57:05;;;;;;;0.32;0.32;;;11.30;99.90;;;;;;5050258;28;20029;-92
2022/07/23 00:59:31;;;;;;;0.00;0.00;;;11.30;99.90;;;;;;5052109;28;20055;-92
2022/07/23 01:01:56;;;;;;;0.00;0.00;;;11.30;99.90;;;;;;5051941;28;20590;-92
2022/07/23 01:04:22;;;;;;;0.00;0.00;;;11.30;99.90;;;;;;5038997;28;20025;-92
2022/07/23 01:06:48;;;;;;;0.00;0.00;;;11.30;99.90;;;;;;5051384;28;20041;-93
2022/07/23 01:09:13;;;;;;;0.00;0.00;;;11.30;99.90;;;;;;5051536;28;20025;-93
2022/07/23 01:11:40;;;;;;;0.00;0.00;;;11.30;99.90;;;;;;5054025;28;20093;-93
2022/07/23 01:14:13;;;;;;;0.20;0.17;;;11.30;99.90;;;;;;5037984;28;20056;-93
2022/07/23 01:16:39;;;;;;;0.00;0.00;;;11.30;99.90;;;;;;5038079;28;20049;-92
2022/07/23 01:19:06;;;;;;;0.00;0.00;;;11.30;99.90;;;;;;5052952;28;20037;-92
2022/07/23 01:21:43;;;;;;;0.00;0.00;;;11.30;99.90;;;;;;5047626;28;20045;-91
2022/07/23 01:24:10;;;;;;;0.25;0.10;;;11.20;99.90;;;;;;5052720;28;20041;-91
2022/07/23 01:26:36;;;;;;;0.00;0.00;;;11.20;99.90;;;;;;5056779;28;20026;-91
2022/07/23 01:29:05;;;;;;;0.00;0.00;;;11.20;99.90;;;;;;5056221;28;20044;-92
2022/07/23 01:31:31;;;;;;;0.10;0.10;;;11.10;99.90;;;;;;5056453;28;20045;-90
2022/07/23 01:33:57;;;;;;;0.00;0.00;;;11.00;99.90;;;;;;5039820;28;20030;-90
2022/07/23 01:36:23;;;;;;;0.10;0.10;;;11.00;99.90;;;;;;5038934;28;20038;-92
2022/07/23 01:38:49;;;;;;;0.25;0.15;;;10.90;99.90;;;;;;5051117;28;20048;-91
2022/07/23 01:41:15;;;;;;;1.65;1.02;;;10.90;99.90;;;;;;5034153;28;20029;-93
2022/07/23 01:43:41;;;;;;;0.00;0.00;;;10.80;99.90;;;;;;5050094;28;20038;-93
2022/07/23 01:46:06;;;;;;;0.00;0.00;;;10.80;99.90;;;;;;5035715;28;20049;-92
2022/07/23 01:48:32;;;;;;;0.00;0.00;;;10.70;99.90;;;;;;5053966;28;20037;-92
2022/07/23 01:50:57;;;;;;;0.00;0.00;;;10.70;99.90;;;;;;5038895;28;20060;-90
2022/07/23 01:53:23;;;;;;;0.00;0.00;;;10.60;99.90;;;;;;5059625;28;20068;-92
2022/07/23 01:55:49;;;;;;;0.10;0.10;;;10.50;99.90;;;;;;5122123;22;20541;-76
2022/07/23 01:58:14;;;;;;;0.52;0.38;;;10.50;99.90;;;;;;5031441;28;20053;-76
2022/07/23 02:00:40;;;;;;;0.00;0.00;;;10.50;99.90;;;;;;5037772;28;20055;-75
2022/07/23 02:03:06;;;;;;;0.00;0.00;;;10.40;99.90;;;;;;5046837;28;20494;-73
2022/07/23 02:05:31;;;;;;;0.00;0.00;;;10.30;99.90;;;;;;5040745;28;20064;-74
2022/07/23 02:07:58;;;;;;;0.00;0.00;;;10.20;99.90;;;;;;5051285;28;20046;-74
2022/07/23 02:10:25;;;;;;;0.28;0.20;;;10.20;99.90;;;;;;5051852;28;20057;-75
2022/07/23 02:12:50;;;;;;;0.00;0.00;;;10.20;99.90;;;;;;5052353;28;20052;-75
2022/07/23 02:15:16;;;;;;;0.00;0.00;;;10.10;99.90;;;;;;5053164;28;20093;-75
2022/07/23 02:17:42;;;;;;;0.00;0.00;;;10.10;99.90;;;;;;5052469;28;20065;-74
2022/07/23 02:20:09;;;;;;;0.10;0.10;;;10.00;99.90;;;;;;5050564;28;20049;-75
2022/07/23 02:22:35;;;;;;;0.00;0.00;;;10.10;99.90;;;;;;5042410;28;20098;-75
2022/07/23 02:25:00;;;;;;;0.00;0.00;;;10.10;99.90;;;;;;5056834;28;20049;-75
2022/07/23 02:27:26;;;;;;;0.00;0.00;;;10.10;99.90;;;;;;5056322;28;20041;-75
2022/07/23 02:29:51;;;;;;;0.03;0.03;;;10.00;99.90;;;;;;5057097;28;20506;-74
2022/07/23 02:32:17;;;;;;;0.10;0.10;;;9.90;99.90;;;;;;5056450;28;20056;-75
2022/07/23 02:34:43;;;;;;;0.10;0.10;;;9.80;99.90;;;;;;5057091;28;20091;-74
2022/07/23 02:37:08;;;;;;;0.00;0.00;;;9.80;99.90;;;;;;5056876;28;20049;-75
2022/07/23 02:39:35;;;;;;;0.03;0.03;;;9.70;99.90;;;;;;5056981;28;20386;-76
2022/07/23 02:42:01;;;;;;;0.10;0.10;;;9.70;99.90;;;;;;5056684;28;20045;-75
2022/07/23 02:44:26;;;;;;;0.00;0.00;;;9.70;99.90;;;;;;5056060;28;20037;-75
2022/07/23 02:46:52;;;;;;;0.05;0.05;;;9.70;99.90;;;;;;5056990;28;20059;-75
2022/07/23 02:49:18;;;;;;;0.00;0.00;;;9.70;99.90;;;;;;5076585;28;20105;-76
2022/07/23 02:51:43;;;;;;;0.00;0.00;;;9.60;99.90;;;;;;5076938;28;20046;-75
2022/07/23 02:54:09;;;;;;;0.28;0.08;;;9.70;99.90;;;;;;5058682;28;20352;-73
2022/07/23 02:56:34;;;;;;;0.00;0.00;;;9.60;99.90;;;;;;5056261;28;20102;-74
2022/07/23 02:59:00;;;;;;;0.00;0.00;;;9.60;99.90;;;;;;5056141;28;20431;-75
2022/07/23 03:01:26;;;;;;;0.10;0.10;;;9.60;99.90;;;;;;5055876;28;20067;-74
2022/07/23 03:03:51;;;;;;;0.00;0.00;;;9.60;99.90;;;;;;5056294;28;20037;-74
2022/07/23 03:06:17;;;;;;;0.00;0.00;;;9.50;99.90;;;;;;5056339;28;20045;-75
2022/07/23 03:08:42;;;;;;;0.00;0.00;;;9.50;99.90;;;;;;5055089;28;20041;-75
2022/07/23 03:11:10;;;;;;;0.00;0.00;;;9.60;99.90;;;;;;5056190;28;20045;-76
2022/07/23 03:13:37;;;;;;;0.05;0.05;;;9.60;99.90;;;;;;5056167;28;20055;-75
2022/07/23 03:16:03;;;;;;;0.55;0.45;;;9.70;99.90;;;;;;5056587;28;20041;-75
2022/07/23 03:18:29;;;;;;;1.27;0.40;;;9.80;99.90;;;;;;5055635;28;20399;-75
2022/07/23 03:20:54;;;;;;;0.47;0.30;;;10.50;99.90;;;;;;5056276;28;20052;-74
2022/07/23 03:23:20;;;;;;;0.10;0.10;;;9.90;99.90;;;;;;5055958;28;20060;-75
2022/07/23 03:25:48;;;;;;;0.00;0.00;;;9.80;99.90;;;;;;5055936;28;20119;-75
2022/07/23 03:28:15;;;;;;;0.38;0.30;;;9.80;99.90;;;;;;5056311;28;20509;-76
2022/07/23 03:30:41;;;;;;;1.45;1.23;;;9.80;99.90;;;;;;5059165;28;20067;-75
2022/07/23 03:33:07;;;;;;;0.00;0.00;;;9.80;99.90;;;;;;5066355;28;20049;-75
2022/07/23 03:35:33;;;;;;;0.00;0.00;;;9.80;99.90;;;;;;5066845;28;20482;-75
2022/07/23 03:37:58;;;;;;;0.00;0.00;;;9.80;99.90;;;;;;5066268;28;20049;-76
2022/07/23 03:40:24;;;;;;;0.00;0.00;;;9.80;99.90;;;;;;5058494;28;20049;-74
2022/07/23 03:42:49;;;;;;;0.15;0.10;;;9.90;99.90;;;;;;5055879;28;20151;-75
2022/07/23 03:45:15;;;;;;;0.10;0.05;;;9.80;99.90;;;;;;5055893;28;20040;-75
2022/07/23 03:47:41;;;;;;;0.00;0.00;;;9.80;99.90;;;;;;5055647;28;20041;-74
2022/07/23 03:50:07;;;;;;;0.00;0.00;;;9.90;99.90;;;;;;5055926;28;20634;-75
2022/07/23 03:52:32;;;;;;;0.65;0.55;;;9.90;99.90;;;;;;5055154;28;20037;-74
2022/07/23 03:54:58;;;;;;;0.00;0.00;;;9.80;99.90;;;;;;5055527;28;20125;-74
2022/07/23 03:57:24;;;;;;;0.00;0.00;;;9.80;99.90;;;;;;5055185;28;20049;-75
2022/07/23 03:59:49;;;;;;;0.35;0.35;;;9.70;99.90;;;;;;5055428;28;20056;-74
2022/07/23 04:02:15;;;;;;;0.00;0.00;;;9.70;99.90;;;;;;5055344;28;20132;-74
2022/07/23 04:04:41;;;;;;;0.00;0.00;;;9.60;99.90;;;;;;5055333;28;20079;-75
2022/07/23 04:07:07;;;;;;;0.00;0.00;;;9.60;99.90;;;;;;5055692;28;20080;-74
2022/07/23 04:09:33;;;;;;;1.55;0.52;;;9.60;99.90;;;;;;5055614;28;20398;-75
2022/07/23 04:11:59;;;;;;;0.00;0.00;;;9.60;99.90;;;;;;5055615;28;20065;-75
2022/07/23 04:14:25;;;;;;;0.10;0.10;;;9.70;99.90;;;;;;5054375;28;20126;-74
2022/07/23 04:16:50;;;;;;;1.67;0.47;;;9.70;99.90;;;;;;5055674;28;20368;-75
2022/07/23 04:19:16;;;;;;;0.00;0.00;;;9.80;99.90;;;;;;5053897;28;20053;-75
2022/07/23 04:21:42;;;;;;;0.28;0.22;;;9.80;99.90;;;;;;5054952;28;20390;-75
2022/07/23 04:24:07;;;;;;;0.00;0.00;;;9.80;99.90;;;;;;5053824;28;20037;-76
2022/07/23 04:26:33;;;;;;;0.20;0.13;;;9.90;99.90;;;;;;5054091;28;20186;-75
2022/07/23 04:28:58;;;;;;;0.05;0.05;;;10.00;99.90;;;;;;5054754;28;20045;-74
2022/07/23 04:31:24;;;;;;;0.10;0.10;;;10.10;99.90;;;;;;5054670;28;20918;-74
2022/07/23 04:33:50;;;;;;;0.22;0.22;;;10.30;99.90;;;;;;5054300;28;20045;-75
2022/07/23 04:36:15;;;;;;;0.00;0.00;;;10.50;99.90;;;;;;5054604;28;20124;-75
2022/07/23 04:38:41;;;;;;;0.00;0.00;;;10.60;99.90;;;;;;5054218;28;20053;-74
2022/07/23 04:41:06;;;;;;;0.40;0.38;;;10.70;99.90;;;;;;5054324;28;20098;-75
2022/07/23 04:43:32;;;;;;;3.83;0.32;;;10.80;99.90;;;;;;5054294;28;20421;-74
2022/07/23 04:45:58;;;;;;;0.80;0.60;;;10.90;99.90;;;;;;5054568;28;20063;-75
2022/07/23 04:48:23;;;;;;;0.03;0.03;;;11.00;99.90;;;;;;5052972;28;20056;-75
2022/07/23 04:50:49;;;;;;;0.05;0.05;;;11.10;99.90;;;;;;5054160;28;20041;-74
2022/07/23 04:53:14;;;;;;;0.08;0.08;;;11.20;99.90;;;;;;5054156;28;20045;-75
2022/07/23 04:55:40;;;;;;;0.45;0.45;;;12.40;99.90;;;;;;5053974;28;20045;-74
2022/07/23 04:58:06;;;;;;;0.00;0.00;;;11.30;99.90;;;;;;5052622;28;20045;-74
2022/07/23 05:00:31;;;;;;;0.45;0.17;;;11.50;99.90;;;;;;5054156;28;20053;-74
2022/07/23 05:02:57;;;;;;;0.82;0.65;;;11.50;99.90;;;;;;5053888;28;20071;-75
2022/07/23 05:05:23;;;;;;;0.10;0.10;;;11.60;99.90;;;;;;5053830;28;20049;-75
2022/07/23 05:07:48;;;;;;;0.75;0.75;;;11.70;99.90;;;;;;5053961;28;20505;-74
2022/07/23 05:10:14;;;;;;;0.20;0.20;;;12.00;99.90;;;;;;5054133;28;20052;-74
2022/07/23 05:12:39;;;;;;;0.15;0.15;;;12.20;99.90;;;;;;5053786;28;20045;-75
2022/07/23 05:15:05;;;;;;;0.10;0.10;;;12.30;99.90;;;;;;5053984;28;20494;-76
2022/07/23 05:17:31;;;;;;;0.47;0.10;;;12.20;99.90;;;;;;5054269;28;20083;-75
2022/07/23 05:19:56;;;;;;;0.10;0.10;;;12.20;99.90;;;;;;5054080;28;20048;-74
2022/07/23 05:22:22;;;;;;;0.10;0.10;;;12.20;99.90;;;;;;5054133;28;20048;-74
2022/07/23 05:24:47;;;;;;;0.95;0.65;;;12.30;99.90;;;;;;5054794;28;20041;-74
2022/07/23 05:27:13;;;;;;;0.17;0.17;;;12.30;99.90;;;;;;5062006;28;20067;-74
2022/07/23 05:29:39;;;;;;;0.05;0.05;;;12.40;99.90;;;;;;5064378;28;20105;-75
2022/07/23 05:32:04;;;;;;;0.00;0.00;;;12.50;99.90;;;;;;5063999;28;20036;-74
2022/07/23 05:34:30;;;;;;;1.00;0.38;;;12.50;99.90;;;;;;5068105;28;20119;-74
2022/07/23 05:36:56;;;;;;;2.10;0.75;;;13.00;99.90;;;;;;5069884;28;20045;-75
2022/07/23 05:39:21;;;;;;;0.00;0.00;;;13.40;99.90;;;;;;5070017;28;20075;-74
2022/07/23 05:41:47;;;;;;;0.35;0.30;;;13.90;99.90;;;;;;5070369;28;20052;-74
2022/07/23 05:44:12;;;;;;;0.00;0.00;;;14.10;99.90;;;;;;5072172;28;20044;-74
2022/07/23 05:46:38;;;;;;;0.65;0.35;;;14.20;99.90;;;;;;5074162;28;20372;-74
2022/07/23 05:49:04;;;;;;;0.00;0.00;;;14.10;99.90;;;;;;5070657;28;20037;-75
2022/07/23 05:51:29;;;;;;;0.10;0.10;;;15.10;99.90;;;;;;5064637;28;20041;-75
2022/07/23 05:53:55;;;;;;;0.00;0.00;;;15.40;99.90;;;;;;5054305;28;20045;-75
2022/07/23 05:56:20;;;;;;;0.05;0.05;;;14.90;99.90;;;;;;5052663;28;20680;-75
2022/07/23 05:58:46;;;;;;;0.80;0.50;;;15.70;99.90;;;;;;5053666;28;20061;-75
2022/07/23 06:01:12;;;;;;;0.00;0.00;;;16.70;99.90;;;;;;5053112;28;20123;-76
2022/07/23 06:03:38;;;;;;;0.98;0.20;;;17.50;99.90;;;;;;5052918;28;20072;-75
2022/07/23 06:06:04;;;;;;;0.95;0.68;;;18.30;99.90;;;;;;5053148;28;20045;-76
2022/07/23 06:08:30;;;;;;;0.10;0.10;;;17.40;99.90;;;;;;5052884;28;20060;-75
2022/07/23 06:10:55;;;;;;;4.90;0.95;;;17.60;99.90;;;;;;5051809;28;20041;-75
2022/07/23 06:13:21;;;;;;;0.05;0.05;;;17.50;99.90;;;;;;5053120;28;20041;-74
2022/07/23 06:15:47;;;;;;;0.00;0.00;;;18.10;99.90;;;;;;5053066;28;20079;-74
2022/07/23 06:18:12;;;;;;;0.50;0.45;;;18.50;99.90;;;;;;5052689;28;20041;-75
2022/07/23 06:20:38;;;;;;;0.15;0.15;;;19.40;99.90;;;;;;5052745;28;20124;-75
2022/07/23 06:23:04;;;;;;;0.43;0.35;;;19.80;99.90;;;;;;5052366;28;20037;-75
2022/07/23 06:25:30;;;;;;;0.10;0.10;;;20.40;99.90;;;;;;5052677;28;20506;-75
2022/07/23 06:27:55;;;;;;;0.00;0.00;;;20.50;99.90;;;;;;5052986;28;20041;-75
2022/07/23 06:30:21;;;;;;;0.43;0.35;;;20.70;99.90;;;;;;5052696;28;20364;-77
2022/07/23 06:32:48;;;;;;;0.32;0.05;;;21.20;99.90;;;;;;5052736;28;20049;-75
2022/07/23 06:35:13;;;;;;;0.00;0.00;;;21.60;99.90;;;;;;5053109;28;20127;-74
2022/07/23 06:37:39;;;;;;;0.35;0.10;;;22.20;99.90;;;;;;5054416;28;20064;-74
2022/07/23 06:40:05;;;;;;;0.25;0.25;;;22.30;95.70;;;;;;5056722;28;20053;-76
2022/07/23 06:42:31;;;;;;;0.05;0.00;;;21.70;92.20;;;;;;5056690;28;20043;-75
2022/07/23 06:44:56;;;;;;;0.10;0.10;;;22.50;99.90;;;;;;5056539;28;20041;-75
2022/07/23 06:47:22;;;;;;;0.30;0.10;;;22.50;96.00;;;;;;5056376;28;20493;-75
2022/07/23 06:49:48;;;;;;;0.10;0.10;;;23.00;98.00;;;;;;5056338;28;20049;-74
2022/07/23 06:52:13;;;;;;;0.00;0.00;;;23.70;96.50;;;;;;5055146;28;20056;-75
2022/07/23 06:54:39;;;;;;;0.03;0.03;;;23.90;75.90;;;;;;5055490;28;20045;-75
2022/07/23 06:57:05;;;;;;;0.00;0.00;;;24.40;82.40;;;;;;5055727;28;20114;-74
2022/07/23 06:59:30;;;;;;;0.00;0.00;;;24.00;92.60;;;;;;5055641;28;20037;-74
2022/07/23 07:01:57;;;;;;;0.30;0.20;;;23.40;83.40;;;;;;5054347;28;20522;-74
2022/07/23 07:04:23;;;;;;;0.00;0.00;;;22.80;90.30;;;;;;5055519;28;20053;-75
2022/07/23 07:06:49;;;;;;;0.00;0.00;;;22.20;88.40;;;;;;5055316;28;20044;-75
2022/07/23 07:09:14;;;;;;;0.00;0.00;;;21.90;96.60;;;;;;5066852;28;20053;-74
2022/07/23 07:11:40;;;;;;;0.00;0.00;;;21.50;97.30;;;;;;5075480;28;20105;-73
2022/07/23 07:14:06;;;;;;;0.38;0.25;;;21.70;99.90;;;;;;5062345;28;20045;-74
2022/07/23 07:16:32;;;;;;;0.00;0.00;;;20.50;99.90;;;;;;5055184;28;20384;-75
2022/07/23 07:18:57;;;;;;;0.00;0.00;;;20.10;99.90;;;;;;5055401;28;20115;-76
2022/07/23 07:21:23;;;;;;;0.17;0.10;;;20.40;99.90;;;;;;5055224;28;20041;-73
2022/07/23 07:23:48;;;;;;;0.00;0.00;;;20.50;99.90;;;;;;5055023;28;20076;-73
2022/07/23 07:26:14;;;;;;;0.00;0.00;;;20.00;99.90;;;;;;5055543;28;20468;-74
2022/07/23 07:28:39;;;;;;;0.00;0.00;;;20.10;99.90;;;;;;5055591;28;20037;-75
2022/07/23 07:31:05;;;;;;;0.10;0.00;;;20.70;99.90;;;;;;5053751;28;20056;-74
2022/07/23 07:33:31;;;;;;;0.10;0.10;;;21.00;99.90;;;;;;5055180;28;20039;-73
2022/07/23 07:35:56;;;;;;;8.88;0.20;;;21.70;99.90;;;;;;5055038;28;20041;-73
2022/07/23 07:38:22;;;;;;;0.00;0.00;;;21.90;98.60;;;;;;5061294;28;20049;-75
2022/07/23 07:40:47;;;;;;;0.00;0.00;;;22.10;92.70;;;;;;5064357;28;20056;-74
2022/07/23 07:43:13;;;;;;;2.28;0.17;;;22.90;90.50;;;;;;5069864;28;20053;-74
2022/07/23 07:45:39;;;;;;;0.00;0.00;;;22.50;75.80;;;;;;5061539;28;20402;-74
2022/07/23 07:48:05;;;;;;;0.00;0.00;;;23.90;88.90;;;;;;5063889;28;20041;-74
2022/07/23 07:50:30;;;;;;;0.00;0.00;;;24.00;56.20;;;;;;5064190;28;20044;-74
2022/07/23 07:52:56;;;;;;;0.10;0.00;;;24.00;67.90;;;;;;5056705;28;20041;-74
2022/07/23 07:55:21;;;;;;;0.20;0.20;;;23.90;66.80;;;;;;5063576;28;20048;-74
2022/07/23 07:57:47;;;;;;;0.00;0.00;;;22.90;69.00;;;;;;5062443;28;20075;-73
2022/07/23 08:00:13;;;;;;;0.00;0.00;;;22.10;68.10;;;;;;5061041;28;20044;-73
2022/07/23 08:02:52;;;;;;;0.00;0.00;;;21.30;87.00;;;;;;5060311;28;20117;-73
2022/07/23 08:05:29;;;;;;;0.20;0.20;;;21.00;87.70;;;;;;5050534;28;20041;-74
2022/07/23 08:07:56;;;;;;;0.00;0.00;;;20.40;93.60;;;;;;5047784;28;20055;-74
2022/07/23 08:10:23;;;;;;;0.40;0.30;;;20.50;92.00;;;;;;5059356;28;20052;-74
2022/07/23 08:12:53;;;;;;;0.28;0.20;;;20.50;99.90;;;;;;5070453;28;20141;-75
2022/07/23 08:15:21;;;;;;;0.00;0.00;;;20.80;96.20;;;;;;5034811;28;20131;-74
2022/07/23 08:17:47;;;;;;;0.00;0.00;;;22.00;89.20;;;;;;5051155;28;20059;-73
2022/07/23 08:20:14;;;;;;;0.00;0.00;;;23.70;73.30;;;;;;5058068;28;20113;-75
2022/07/23 08:23:07;;;;;;;1.17;0.30;;;24.60;23.00;;;;;;5060509;28;20053;-75
2022/07/23 08:25:39;;;;;;;0.00;0.00;;;25.00;19.80;;;;;;5070215;28;20421;-76
2022/07/23 08:28:18;;;;;;;0.00;0.00;;;24.60;29.40;;;;;;5070975;28;20123;-73
2022/07/23 08:30:45;;;;;;;0.00;0.00;;;23.50;13.80;;;;;;5071800;28;20118;-75
2022/07/23 08:36:13;;;;;;;0.00;0.00;;;22.80;48.40;;;;;;5085067;27;20491;-75
2022/07/23 08:38:39;;;;;;;0.00;0.00;;;23.80;42.40;;;;;;5047305;28;20421;-74
2022/07/23 08:41:08;;;;;;;0.00;0.00;;;24.20;26.30;;;;;;5047044;28;20045;-75
2022/07/23 08:43:45;;;;;;;0.20;0.10;;;24.90;15.40;;;;;;5049523;28;20152;-75
2022/07/23 08:46:44;;;;;;;0.00;0.00;;;24.50;19.20;;;;;;5066643;28;20041;-74
2022/07/23 08:49:10;;;;;;;0.00;0.00;;;24.30;11.70;;;;;;5067499;28;20156;-76
2022/07/23 08:51:36;;;;;;;0.00;0.00;;;23.80;18.30;;;;;;5065602;28;20139;-74
2022/07/23 08:54:02;;;;;;;0.00;0.00;;;23.60;20.20;;;;;;5059180;28;20120;-74
2022/07/23 08:56:28;;;;;;;0.28;0.15;;;24.80;18.40;;;;;;5067355;28;20398;-75
2022/07/23 08:58:54;;;;;;;0.20;0.15;;;25.30;14.60;;;;;;5065941;28;20052;-76
2022/07/23 09:01:20;;;;;;;0.00;0.00;;;26.30;16.20;;;;;;5067431;28;20048;-75
2022/07/23 09:03:45;;;;;;;0.10;0.10;;;26.80;1.00;;;;;;5067004;28;20215;-73
2022/07/23 09:06:11;;;;;;;0.00;0.00;;;25.70;1.00;;;;;;5067276;28;20119;-75
2022/07/23 09:08:56;;;;;;;0.10;0.10;;;25.80;5.40;;;;;;5065164;28;20116;-77
2022/07/23 09:11:22;;;;;;;0.08;0.00;;;26.50;1.00;;;;;;5069499;28;20048;-73
2022/07/23 09:14:02;;;;;;;0.75;0.30;;;26.70;1.00;;;;;;5070824;28;20032;-76
2022/07/23 09:16:29;;;;;;;0.00;0.00;;;26.40;1.00;;;;;;5070896;28;20041;-75
2022/07/23 09:19:03;;;;;;;0.35;0.03;;;25.60;1.00;;;;;;5068122;28;20049;-75
2022/07/23 09:21:40;;;;;;;0.90;0.32;;;24.70;1.00;;;;;;5070876;28;20116;-74
2022/07/23 09:24:17;;;;;;;0.00;0.00;;;25.20;4.40;;;;;;5067304;28;20053;-74
2022/07/23 09:26:47;;;;;;;0.00;0.00;;;25.90;2.50;;;;;;5069576;28;20131;-73
2022/07/23 09:29:27;;;;;;;0.00;0.00;;;25.60;1.00;;;;;;5072157;28;20055;-73
2022/07/23 09:32:02;;;;;;;0.00;0.00;;;25.00;1.50;;;;;;5072821;28;20045;-75
2022/07/23 09:34:35;;;;;;;0.00;0.00;;;24.70;2.40;;;;;;5071410;28;20552;-74
2022/07/23 09:37:13;;;;;;;0.10;0.00;;;24.10;4.90;;;;;;5066744;28;20289;-73
2022/07/23 09:39:39;;;;;;;0.00;0.00;;;24.40;7.60;;;;;;5065851;28;20127;-74
2022/07/23 09:42:25;;;;;;;0.00;0.00;;;23.60;7.80;;;;;;5065018;28;20453;-74
2022/07/23 09:44:54;;;;;;;0.00;0.00;;;24.10;12.70;;;;;;5064143;28;20036;-74
2022/07/23 09:47:21;;;;;;;0.38;0.38;;;24.70;10.80;;;;;;5048398;28;20037;-75
2022/07/23 09:50:08;;;;;;;0.17;0.13;;;24.30;10.10;;;;;;5051719;28;20086;-72
2022/07/23 09:52:36;;;;;;;0.00;0.00;;;24.20;14.30;;;;;;5047292;28;20124;-73
2022/07/23 09:55:04;;;;;;;0.17;0.17;;;24.10;10.60;;;;;;5048618;28;20041;-74
2022/07/23 09:57:34;;;;;;;0.00;0.00;;;24.10;16.60;;;;;;5049122;28;20542;-77
2022/07/23 10:00:09;;;;;;;0.40;0.25;;;24.70;12.80;;;;;;5050766;28;20045;-74
2022/07/23 10:02:35;;;;;;;0.00;0.00;;;24.90;6.40;;;;;;5051911;28;20045;-74
2022/07/23 10:05:02;;;;;;;0.00;0.00;;;24.60;5.10;;;;;;5046721;28;20112;-74
2022/07/23 10:07:33;;;;;;;0.00;0.00;;;24.20;10.70;;;;;;5053352;28;20034;-73
2022/07/23 10:10:00;;;;;;;0.20;0.20;;;24.40;11.20;;;;;;5052271;28;20449;-74
2022/07/23 10:15:00;;;;;;;0.00;0.00;;;24.50;9.70;;;;;;5051644;28;20095;-75
2022/07/23 10:17:28;;;;;;;0.00;0.00;;;24.50;5.40;;;;;;5031667;28;20068;-74
2022/07/23 10:19:54;;;;;;;0.38;0.28;;;25.00;7.40;;;;;;5051794;28;20076;-73
2022/07/23 10:22:24;;;;;;;0.65;0.35;;;25.20;9.70;;;;;;5051991;28;20559;-73
2022/07/23 10:24:59;;;;;;;0.00;0.00;;;24.70;7.80;;;;;;5048793;28;20051;-74
2022/07/23 10:27:50;;;;;;;0.70;0.55;;;24.10;10.40;;;;;;5051424;28;20037;-74
2022/07/23 10:30:51;;;;;;;0.00;0.00;;;24.30;13.30;;;;;;5051081;28;20075;-74
2022/07/23 10:33:54;;;;;;;0.00;0.00;;;24.10;9.70;;;;;;5051045;28;20563;-74
2022/07/23 10:36:49;;;;;;;0.00;0.00;;;24.30;8.90;;;;;;5049475;28;20080;-73
2022/07/23 10:39:31;;;;;;;0.10;0.10;;;23.80;13.60;;;;;;5050406;28;20144;-73
2022/07/23 10:42:13;;;;;;;0.20;0.10;;;23.70;11.90;;;;;;5051445;28;20052;-74
2022/07/23 10:44:45;;;;;;;0.32;0.10;;;23.70;24.60;;;;;;5050905;28;20136;-73
2022/07/23 10:49:46;;;;;;;0.10;0.10;;;23.60;22.00;;;;;;5055161;28;20080;-74
2022/07/23 10:52:14;;;;;;;0.00;0.00;;;23.70;22.60;;;;;;5053682;28;20140;-75
2022/07/23 10:54:40;;;;;;;0.85;0.22;;;23.60;19.10;;;;;;5053340;28;20056;-74
2022/07/23 10:57:08;;;;;;;0.95;0.43;;;23.90;17.00;;;;;;5054202;28;20390;-73
2022/07/23 11:02:31;;;;;;;0.00;0.00;;;23.90;16.40;;;;;;5053674;28;20083;-73
2022/07/23 11:05:07;;;;;;;0.00;0.00;;;23.70;18.40;;;;;;5054305;28;20049;-74
2022/07/23 11:07:57;;;;;;;0.68;0.30;;;23.50;14.30;;;;;;5054140;28;20037;-73
2022/07/23 11:10:35;;;;;;;0.00;0.00;;;23.60;16.30;;;;;;5053665;28;20041;-74
2022/07/23 11:13:29;;;;;;;0.00;0.00;;;23.80;15.80;;;;;;5054109;28;20483;-74
2022/07/23 11:16:01;;;;;;;0.20;0.20;;;24.30;19.00;;;;;;5048508;28;20064;-74
2022/07/23 11:18:53;;;;;;;0.38;0.25;;;24.70;12.80;;;;;;5054067;28;20041;-73
2022/07/23 11:21:31;;;;;;;0.00;0.00;;;24.80;8.60;;;;;;5051017;28;20052;-74
2022/07/23 11:23:56;;;;;;;0.20;0.13;;;24.60;11.10;;;;;;5053486;28;20487;-73
2022/07/23 11:26:43;;;;;;;0.00;0.00;;;25.00;12.10;;;;;;5053619;28;20048;-74
2022/07/23 11:29:33;;;;;;;0.38;0.20;;;25.00;4.60;;;;;;5053310;28;20047;-73
2022/07/23 11:32:08;;;;;;;0.00;0.00;;;25.00;7.10;;;;;;5053901;28;20053;-73
2022/07/23 11:34:42;;;;;;;0.10;0.10;;;25.20;6.40;;;;;;5053139;28;20407;-74
2022/07/23 11:37:11;;;;;;;0.00;0.00;;;25.40;7.80;;;;;;5038474;28;20040;-74
2022/07/23 11:39:38;;;;;;;0.15;0.15;;;25.20;7.40;;;;;;5053168;28;20044;-74
2022/07/23 11:42:05;;;;;;;0.00;0.00;;;25.50;7.50;;;;;;5053252;28;20044;-74
2022/07/23 11:44:33;;;;;;;0.70;0.28;;;25.70;8.50;;;;;;5052299;28;20079;-74
2022/07/23 11:47:07;;;;;;;0.00;0.00;;;25.90;5.00;;;;;;5053090;28;20045;-73
2022/07/23 11:49:34;;;;;;;0.10;0.10;;;25.30;3.60;;;;;;5053428;28;20126;-75
2022/07/23 11:52:11;;;;;;;0.05;0.05;;;25.10;7.50;;;;;;5053403;28;20175;-73
2022/07/23 11:54:48;;;;;;;0.00;0.00;;;25.00;8.20;;;;;;5035255;28;20044;-75
2022/07/23 11:57:15;;;;;;;0.00;0.00;;;24.90;5.50;;;;;;5052786;28;20041;-73
2022/07/23 11:59:41;;;;;;;0.00;0.00;;;25.40;7.30;;;;;;5052948;28;20041;-72
2022/07/23 12:02:07;;;;;;;0.00;0.00;;;26.00;6.50;;;;;;5053204;28;20112;-73
2022/07/23 12:04:48;;;;;;;0.65;0.43;;;27.30;4.20;;;;;;5052406;28;20249;-74
2022/07/23 12:07:32;;;;;;;0.00;0.00;;;27.30;1.00;;;;;;5052309;28;20115;-74
2022/07/23 12:10:19;;;;;;;0.68;0.20;;;27.70;5.90;;;;;;5052627;28;20503;-73
2022/07/23 12:12:54;;;;;;;0.00;0.00;;;27.20;1.00;;;;;;5052529;28;20576;-73
2022/07/23 12:15:23;;;;;;;3.88;0.73;;;26.90;2.60;;;;;;5052419;28;20390;-74
2022/07/23 12:17:50;;;;;;;0.00;0.00;;;27.40;1.00;;;;;;5051368;28;20041;-74
2022/07/23 12:20:19;;;;;;;0.52;0.30;;;28.30;1.00;;;;;;5053097;28;20041;-74
2022/07/23 12:22:49;;;;;;;0.70;0.45;;;28.30;1.00;;;;;;5052857;28;20499;-74
2022/07/23 12:25:18;;;;;;;0.00;0.00;;;28.60;1.00;;;;;;5053011;28;20037;-73
2022/07/23 12:27:44;;;;;;;0.08;0.08;;;27.90;1.00;;;;;;5052458;28;20036;-74
2022/07/23 12:30:17;;;;;;;0.00;0.00;;;27.30;1.00;;;;;;5052771;28;20045;-72
2022/07/23 12:32:45;;;;;;;0.00;0.00;;;27.00;1.00;;;;;;5052302;28;20052;-74
2022/07/23 12:35:10;;;;;;;0.30;0.30;;;26.70;3.10;;;;;;5053078;28;20061;-74
2022/07/23 12:37:39;;;;;;;0.20;0.20;;;26.90;5.50;;;;;;5056646;28;20045;-73
2022/07/23 12:40:32;;;;;;;0.00;0.00;;;28.10;3.40;;;;;;5053275;28;20052;-75
2022/07/23 12:42:59;;;;;;;0.00;0.00;;;27.90;1.00;;;;;;5053181;28;20109;-74
2022/07/23 12:45:26;;;;;;;0.52;0.38;;;28.70;1.00;;;;;;5052319;28;20048;-73
2022/07/23 12:48:01;;;;;;;0.00;0.00;;;28.60;1.00;;;;;;5051420;28;20041;-73
2022/07/23 12:50:32;;;;;;;0.00;0.00;;;28.40;1.00;;;;;;5052878;28;20095;-75
2022/07/23 12:53:10;;;;;;;0.00;0.00;;;28.60;1.00;;;;;;5052196;28;20061;-74
2022/07/23 12:55:37;;;;;;;0.25;0.20;;;28.30;1.00;;;;;;5035526;28;20191;-73
2022/07/23 12:58:15;;;;;;;0.00;0.00;;;27.40;1.00;;;;;;5051072;28;20614;-73
2022/07/23 13:00:50;;;;;;;0.00;0.00;;;27.10;1.00;;;;;;5052501;28;20056;-74
2022/07/23 13:03:23;;;;;;;0.03;0.03;;;26.10;1.00;;;;;;5052280;28;20399;-73
2022/07/23 13:05:49;;;;;;;0.00;0.00;;;25.80;4.20;;;;;;5052398;28;20510;-73
2022/07/23 13:08:15;;;;;;;0.45;0.30;;;25.30;4.30;;;;;;5050408;28;20132;-73